createdAt,value
2022-08-18T00:01:14.547Z,21.38
2022-08-18T00:03:56.765Z,21.36
2022-08-18T00:06:29.560Z,21.33
2022-08-18T00:09:00.468Z,21.30
2022-08-18T00:11:40.922Z,21.26
2022-08-18T00:14:21.425Z,21.22
2022-08-18T00:16:53.177Z,21.19
2022-08-18T00:19:45.712Z,21.15
2022-08-18T00:22:15.251Z,21.11
2022-08-18T00:24:48.086Z,21.08
2022-08-18T00:27:28.507Z,21.06
2022-08-18T00:30:00.397Z,21.03
2022-08-18T00:32:34.083Z,20.98
2022-08-18T00:35:13.916Z,20.95
2022-08-18T00:37:43.446Z,20.92
2022-08-18T00:40:17.998Z,20.89
2022-08-18T00:42:49.831Z,20.87
2022-08-18T00:45:23.267Z,20.84
2022-08-18T00:47:52.042Z,20.82
2022-08-18T00:50:31.554Z,20.81
2022-08-18T00:53:36.101Z,20.78
2022-08-18T00:56:11.490Z,20.76
2022-08-18T00:58:51.819Z,20.74
2022-08-18T01:01:24.905Z,20.72
2022-08-18T01:04:00.652Z,20.71
2022-08-18T01:06:41.476Z,20.70
2022-08-18T01:09:09.952Z,20.69
2022-08-18T01:11:39.812Z,20.68
2022-08-18T01:14:09.828Z,20.67
2022-08-18T01:16:57.321Z,20.67
2022-08-18T01:19:47.709Z,20.66
2022-08-18T01:22:43.019Z,20.65
2022-08-18T01:25:29.683Z,20.64
2022-08-18T01:28:00.728Z,20.63
2022-08-18T01:30:32.431Z,20.62
2022-08-18T01:33:00.331Z,20.61
2022-08-18T01:35:28.468Z,20.59
2022-08-18T01:38:06.055Z,20.57
2022-08-18T01:41:23.890Z,20.57
2022-08-18T01:43:21.818Z,20.56
2022-08-18T01:45:49.647Z,20.54
2022-08-18T01:48:17.832Z,20.53
2022-08-18T01:50:48.363Z,20.51
2022-08-18T01:53:17.361Z,20.50
2022-08-18T01:55:46.585Z,20.48
2022-08-18T01:58:14.696Z,20.48
2022-08-18T02:00:42.730Z,20.47
2022-08-18T02:03:14.744Z,20.45
2022-08-18T02:05:48.611Z,20.43
2022-08-18T02:08:16.653Z,20.41
2022-08-18T02:10:44.479Z,20.38
2022-08-18T02:13:13.143Z,20.35
2022-08-18T02:15:42.918Z,20.33
2022-08-18T02:18:25.954Z,20.30
2022-08-18T02:21:19.053Z,20.27
2022-08-18T02:23:53.976Z,20.22
2022-08-18T02:26:23.603Z,20.19
2022-08-18T02:28:52.605Z,20.17
2022-08-18T02:31:23.235Z,20.16
2022-08-18T02:33:52.291Z,20.14
2022-08-18T02:36:25.253Z,20.12
2022-08-18T02:38:58.913Z,20.10
2022-08-18T02:41:29.637Z,20.07
2022-08-18T02:43:59.529Z,20.05
2022-08-18T02:46:31.129Z,20.02
2022-08-18T02:49:00.783Z,20.00
2022-08-18T02:51:29.395Z,19.98
2022-08-18T02:54:01.187Z,19.97
2022-08-18T02:56:40.303Z,19.95
2022-08-18T02:59:14.466Z,19.94
2022-08-18T03:01:46.315Z,19.93
2022-08-18T03:04:17.746Z,19.91
2022-08-18T03:06:46.911Z,19.89
2022-08-18T03:09:18.768Z,19.89
2022-08-18T03:11:47.055Z,19.89
2022-08-18T03:14:15.455Z,19.88
2022-08-18T03:16:53.567Z,19.88
2022-08-18T03:19:25.404Z,19.87
2022-08-18T03:21:53.367Z,19.87
2022-08-18T03:24:23.724Z,19.86
2022-08-18T03:26:53.592Z,19.86
2022-08-18T03:29:21.638Z,19.86
2022-08-18T03:31:50.762Z,19.86
2022-08-18T03:34:20.207Z,19.86
2022-08-18T03:36:50.367Z,19.87
2022-08-18T03:39:20.068Z,19.86
2022-08-18T03:41:58.480Z,19.85
2022-08-18T03:44:33.810Z,19.85
2022-08-18T03:47:03.978Z,19.86
2022-08-18T03:49:34.008Z,19.87
2022-08-18T03:52:02.487Z,19.88
2022-08-18T03:54:32.517Z,19.91
2022-08-18T03:57:00.689Z,19.92
2022-08-18T03:59:32.003Z,19.95
2022-08-18T04:02:03.763Z,19.97
2022-08-18T04:04:31.691Z,20.00
2022-08-18T04:07:05.712Z,20.03
2022-08-18T04:09:36.358Z,20.07
2022-08-18T04:12:15.367Z,20.12
2022-08-18T04:14:49.055Z,20.17
2022-08-18T04:17:24.609Z,20.22
2022-08-18T04:19:55.584Z,20.28
2022-08-18T04:22:25.170Z,20.34
2022-08-18T04:24:53.956Z,20.41
2022-08-18T04:27:23.399Z,20.47
2022-08-18T04:29:51.295Z,20.52
2022-08-18T04:32:19.697Z,20.61
2022-08-18T04:34:47.597Z,20.71
2022-08-18T04:37:16.931Z,20.81
2022-08-18T04:39:46.120Z,20.92
2022-08-18T04:42:15.391Z,21.05
2022-08-18T04:44:43.534Z,21.19
2022-08-18T04:47:13.459Z,21.36
2022-08-18T04:49:41.479Z,21.53
2022-08-18T04:52:40.141Z,21.71
2022-08-18T04:55:11.150Z,21.92
2022-08-18T04:57:39.731Z,22.10
2022-08-18T05:00:13.013Z,22.25
2022-08-18T05:02:41.279Z,22.41
2022-08-18T05:05:09.243Z,22.63
2022-08-18T05:07:44.287Z,22.85
2022-08-18T05:10:13.058Z,23.09
2022-08-18T05:12:42.593Z,23.32
2022-08-18T05:15:10.731Z,23.53
2022-08-18T05:17:39.861Z,23.72
2022-08-18T05:20:12.271Z,23.91
2022-08-18T05:22:42.224Z,24.14
2022-08-18T05:25:12.484Z,24.35
2022-08-18T05:27:44.050Z,24.46
2022-08-18T05:30:14.590Z,24.61
2022-08-18T05:32:49.928Z,24.80
2022-08-18T05:35:26.431Z,24.94
2022-08-18T05:38:26.555Z,25.06
2022-08-18T05:41:13.929Z,25.21
2022-08-18T05:43:51.440Z,25.35
2022-08-18T05:46:32.629Z,25.49
2022-08-18T05:49:00.474Z,25.67
2022-08-18T05:51:38.554Z,25.92
2022-08-18T05:54:25.771Z,26.23
2022-08-18T05:57:03.673Z,26.53
2022-08-18T05:59:39.891Z,26.79
2022-08-18T06:02:31.658Z,27.01
2022-08-18T06:05:35.208Z,27.22
2022-08-18T06:08:10.527Z,27.46
2022-08-18T06:10:43.614Z,27.68
2022-08-18T06:13:11.971Z,27.92
2022-08-18T06:15:57.206Z,28.15
2022-08-18T06:18:43.262Z,28.41
2022-08-18T06:21:25.640Z,28.64
2022-08-18T06:24:07.179Z,28.83
2022-08-18T06:26:41.443Z,29.00
2022-08-18T06:29:48.171Z,29.16
2022-08-18T06:32:53.144Z,29.40
2022-08-18T06:35:36.112Z,29.69
2022-08-18T06:38:34.025Z,29.93
2022-08-18T06:41:42.353Z,30.13
2022-08-18T06:44:27.091Z,30.34
2022-08-18T06:47:10.363Z,30.50
2022-08-18T06:49:46.809Z,30.62
2022-08-18T06:52:23.754Z,30.74
2022-08-18T06:54:54.990Z,30.87
2022-08-18T06:57:36.559Z,30.95
2022-08-18T07:00:20.364Z,30.96
2022-08-18T07:03:01.293Z,31.03
2022-08-18T07:05:32.448Z,31.12
2022-08-18T07:08:11.808Z,31.22
2022-08-18T07:10:45.771Z,31.31
2022-08-18T07:13:13.552Z,31.37
2022-08-18T07:15:44.266Z,31.40
2022-08-18T07:18:14.013Z,31.41
2022-08-18T07:21:00.667Z,31.40
2022-08-18T07:23:32.631Z,31.46
2022-08-18T07:26:17.757Z,31.44
2022-08-18T07:28:52.865Z,31.42
2022-08-18T07:31:31.723Z,31.37
2022-08-18T07:34:10.734Z,31.29
2022-08-18T07:36:51.192Z,31.18
2022-08-18T07:39:26.773Z,31.22
2022-08-18T07:42:44.701Z,31.26
2022-08-18T07:45:42.471Z,31.30
2022-08-18T07:48:38.464Z,31.24
2022-08-18T07:51:37.622Z,31.18
2022-08-18T07:54:49.072Z,31.02
2022-08-18T07:57:42.217Z,30.94
2022-08-18T08:00:35.072Z,31.00
2022-08-18T08:03:47.147Z,31.04
2022-08-18T08:06:30.814Z,31.10
2022-08-18T08:08:59.211Z,31.17
2022-08-18T08:11:37.629Z,31.23
2022-08-18T08:14:11.184Z,31.24
2022-08-18T08:16:58.219Z,31.16
2022-08-18T08:20:00.116Z,31.20
2022-08-18T08:22:51.011Z,31.17
2022-08-18T08:25:45.793Z,31.19
2022-08-18T08:28:44.520Z,31.20
2022-08-18T08:31:36.855Z,31.16
2022-08-18T08:34:27.393Z,31.23
2022-08-18T08:37:05.162Z,31.28
2022-08-18T08:40:02.873Z,31.35
2022-08-18T08:42:42.981Z,31.47
2022-08-18T08:45:21.661Z,31.56
2022-08-18T08:48:09.254Z,31.69
2022-08-18T08:51:01.508Z,31.82
2022-08-18T08:53:36.312Z,31.93
2022-08-18T08:56:09.471Z,32.03
2022-08-18T08:58:55.661Z,32.10
2022-08-18T09:01:55.387Z,32.21
2022-08-18T09:04:54.114Z,32.32
2022-08-18T09:07:47.504Z,32.44
2022-08-18T09:10:34.882Z,32.52
2022-08-18T09:13:14.781Z,32.58
2022-08-18T09:16:14.153Z,32.59
2022-08-18T09:19:08.625Z,32.60
2022-08-18T09:21:54.600Z,32.65
2022-08-18T09:24:40.694Z,32.72
2022-08-18T09:27:15.359Z,32.77
2022-08-18T09:29:57.619Z,32.77
2022-08-18T09:32:26.244Z,32.74
2022-08-18T09:35:12.047Z,32.68
2022-08-18T09:37:50.320Z,32.66
2022-08-18T09:43:54.693Z,32.71
2022-08-18T09:46:41.657Z,32.77
2022-08-18T09:49:27.297Z,32.78
2022-08-18T09:52:00.263Z,32.81
2022-08-18T09:54:33.391Z,32.86
2022-08-18T09:57:19.506Z,32.90
2022-08-18T09:59:49.191Z,32.98
2022-08-18T10:02:32.749Z,33.05
2022-08-18T10:05:20.332Z,33.03
2022-08-18T10:08:08.121Z,33.05
2022-08-18T10:11:16.791Z,33.06
2022-08-18T10:14:10.587Z,33.03
2022-08-18T10:17:21.850Z,33.02
2022-08-18T10:20:25.958Z,33.08
2022-08-18T10:22:57.471Z,33.19
2022-08-18T10:25:39.598Z,33.20
2022-08-18T10:28:29.090Z,33.12
2022-08-18T10:31:06.188Z,33.05
2022-08-18T10:34:08.507Z,33.03
2022-08-18T10:36:58.875Z,32.99
2022-08-18T10:39:41.822Z,32.95
2022-08-18T10:42:19.416Z,32.97
2022-08-18T10:44:52.322Z,33.02
2022-08-18T10:47:33.589Z,33.01
2022-08-18T10:50:09.919Z,32.96
2022-08-18T10:56:08.739Z,32.92
2022-08-18T10:59:17.328Z,32.94
2022-08-18T11:02:18.682Z,33.03
2022-08-18T11:04:58.934Z,33.10
2022-08-18T11:07:30.928Z,33.13
2022-08-18T11:10:58.147Z,33.21
2022-08-18T11:13:29.600Z,33.33
2022-08-18T11:16:31.157Z,33.43
2022-08-18T11:19:16.973Z,33.55
2022-08-18T11:21:51.060Z,33.52
2022-08-18T11:24:26.002Z,33.52
2022-08-18T11:27:03.794Z,33.50
2022-08-18T11:29:40.326Z,33.36
2022-08-18T11:32:26.458Z,33.34
2022-08-18T11:35:05.100Z,33.41
2022-08-18T11:43:41.962Z,33.54
2022-08-18T11:49:30.212Z,33.49
2022-08-18T11:52:26.309Z,33.54
2022-08-18T11:55:16.690Z,33.64
2022-08-18T11:57:59.335Z,33.71
2022-08-18T12:00:53.791Z,33.77
2022-08-18T12:03:45.304Z,33.88
2022-08-18T12:06:29.892Z,34.00
2022-08-18T12:09:05.902Z,34.05
2022-08-18T12:11:41.280Z,34.06
2022-08-18T12:14:30.377Z,34.10
2022-08-18T12:17:08.626Z,34.15
2022-08-18T12:19:37.575Z,34.16
2022-08-18T12:22:19.571Z,34.19
2022-08-18T12:24:48.887Z,34.27
2022-08-18T12:30:16.655Z,34.23
2022-08-18T12:32:49.895Z,34.21
2022-08-18T12:35:21.993Z,34.24
2022-08-18T12:38:03.643Z,34.25
2022-08-18T12:40:40.412Z,34.28
2022-08-18T12:43:08.231Z,34.38
2022-08-18T12:48:28.248Z,34.31
2022-08-18T12:50:59.622Z,34.29
2022-08-18T12:53:38.269Z,34.33
2022-08-18T12:56:30.413Z,34.37
2022-08-18T12:59:03.883Z,34.25
2022-08-18T13:01:35.172Z,34.09
2022-08-18T13:04:12.981Z,34.13
2022-08-18T13:07:00.167Z,34.22
2022-08-18T13:09:35.183Z,34.19
2022-08-18T13:12:22.014Z,34.12
2022-08-18T13:14:50.879Z,34.07
2022-08-18T13:17:30.347Z,34.09
2022-08-18T13:20:05.614Z,34.00
2022-08-18T13:22:33.765Z,33.96
2022-08-18T13:25:07.514Z,33.92
2022-08-18T13:27:37.260Z,33.88
2022-08-18T13:30:16.819Z,33.88
2022-08-18T13:33:05.165Z,33.91
2022-08-18T13:35:52.385Z,33.99
2022-08-18T13:38:27.160Z,34.15
2022-08-18T13:41:00.901Z,34.31
2022-08-18T13:43:39.597Z,34.43
2022-08-18T13:46:11.601Z,34.50
2022-08-18T13:48:41.733Z,34.53
2022-08-18T13:51:14.358Z,34.60
2022-08-18T13:53:51.035Z,34.65
2022-08-18T13:56:31.245Z,34.68
2022-08-18T13:59:01.745Z,34.71
2022-08-18T14:01:44.433Z,34.74
2022-08-18T14:04:22.685Z,34.70
2022-08-18T14:06:57.340Z,34.66
2022-08-18T14:09:37.248Z,34.64
2022-08-18T14:12:33.425Z,34.59
2022-08-18T14:15:02.175Z,34.50
2022-08-18T14:17:30.598Z,34.45
2022-08-18T14:20:22.023Z,34.45
2022-08-18T14:23:22.008Z,34.47
2022-08-18T14:26:12.340Z,34.55
2022-08-18T14:28:43.102Z,34.55
2022-08-18T14:31:18.225Z,34.44
2022-08-18T14:33:50.902Z,34.35
2022-08-18T14:36:20.376Z,34.29
2022-08-18T14:39:02.875Z,34.18
2022-08-18T14:41:32.399Z,34.11
2022-08-18T14:44:12.982Z,34.09
2022-08-18T14:46:51.985Z,34.05
2022-08-18T14:49:28.248Z,34.03
2022-08-18T14:52:01.516Z,34.02
2022-08-18T14:54:31.476Z,34.04
2022-08-18T14:57:02.660Z,34.07
2022-08-18T14:59:34.576Z,34.06
2022-08-18T15:02:13.343Z,34.00
2022-08-18T15:04:53.144Z,33.94
2022-08-18T15:07:24.574Z,33.90
2022-08-18T15:10:14.991Z,33.89
2022-08-18T15:12:41.105Z,33.84
2022-08-18T15:15:17.689Z,33.79
2022-08-18T15:17:50.108Z,33.79
2022-08-18T15:20:29.683Z,33.77
2022-08-18T15:23:28.035Z,33.73
2022-08-18T15:25:59.053Z,33.69
2022-08-18T15:28:28.069Z,33.68
2022-08-18T15:33:44.572Z,33.57
2022-08-18T15:36:23.972Z,33.54
2022-08-18T15:38:59.294Z,33.53
2022-08-18T15:41:43.899Z,33.52
2022-08-18T15:44:14.507Z,33.49
2022-08-18T15:46:51.294Z,33.45
2022-08-18T15:49:24.474Z,33.39
2022-08-18T15:51:52.743Z,33.35
2022-08-18T15:54:21.463Z,33.31
2022-08-18T15:56:58.241Z,33.29
2022-08-18T15:59:34.237Z,33.28
2022-08-18T16:02:11.601Z,33.24
2022-08-18T16:04:43.103Z,33.21
2022-08-18T16:07:15.815Z,33.21
2022-08-18T16:09:46.488Z,33.18
2022-08-18T16:12:14.771Z,33.12
2022-08-18T16:14:43.148Z,33.10
2022-08-18T16:17:23.444Z,33.05
2022-08-18T16:19:52.941Z,32.96
2022-08-18T16:22:21.749Z,32.88
2022-08-18T16:24:54.906Z,32.82
2022-08-18T16:27:23.391Z,32.71
2022-08-18T16:29:51.165Z,32.59
2022-08-18T16:32:19.044Z,32.45
2022-08-18T16:34:47.010Z,32.34
2022-08-18T16:39:50.382Z,32.17
2022-08-18T16:42:21.433Z,32.08
2022-08-18T16:44:50.201Z,32.00
2022-08-18T16:47:19.556Z,31.90
2022-08-18T16:49:49.908Z,31.78
2022-08-18T16:52:20.101Z,31.69
2022-08-18T16:54:57.629Z,31.60
2022-08-18T16:57:53.764Z,31.53
2022-08-18T17:00:46.499Z,31.51
2022-08-18T17:03:42.953Z,31.45
2022-08-18T17:06:14.424Z,31.40
2022-08-18T17:08:44.467Z,31.34
2022-08-18T17:11:18.300Z,31.30
2022-08-18T17:13:48.949Z,31.27
2022-08-18T17:16:19.485Z,31.23
2022-08-18T17:18:48.933Z,31.16
2022-08-18T17:21:23.722Z,31.10
2022-08-18T17:23:52.491Z,31.06
2022-08-18T17:26:33.614Z,31.02
2022-08-18T17:29:26.781Z,30.94
2022-08-18T17:32:05.835Z,30.87
2022-08-18T17:34:39.581Z,30.78
2022-08-18T17:37:10.423Z,30.70
2022-08-18T17:40:02.894Z,30.59
2022-08-18T17:42:40.567Z,30.47
2022-08-18T17:45:21.800Z,30.35
2022-08-18T17:47:55.585Z,30.22
2022-08-18T17:50:54.870Z,30.07
2022-08-18T17:53:25.375Z,29.89
2022-08-18T17:56:35.564Z,29.76
2022-08-18T17:59:45.421Z,29.62
2022-08-18T18:02:19.027Z,29.49
2022-08-18T18:05:01.181Z,29.35
2022-08-18T18:07:38.659Z,29.22
2022-08-18T18:10:14.310Z,29.09
2022-08-18T18:12:42.544Z,28.96
2022-08-18T18:15:13.889Z,28.83
2022-08-18T18:17:43.104Z,28.71
2022-08-18T18:20:38.387Z,28.61
2022-08-18T18:23:28.011Z,28.48
2022-08-18T18:25:58.230Z,28.37
2022-08-18T18:28:33.386Z,28.26
2022-08-18T18:31:21.485Z,28.16
2022-08-18T18:33:58.976Z,28.06
2022-08-18T18:36:43.250Z,27.96
2022-08-18T18:39:35.444Z,27.88
2022-08-18T18:42:14.578Z,27.79
2022-08-18T18:44:51.870Z,27.70
2022-08-18T18:47:42.673Z,27.63
2022-08-18T18:50:21.940Z,27.56
2022-08-18T18:53:35.668Z,27.49
2022-08-18T18:56:18.314Z,27.41
2022-08-18T18:59:05.033Z,27.34
2022-08-18T19:02:01.487Z,27.26
2022-08-18T19:05:07.781Z,27.21
2022-08-18T19:08:04.967Z,27.14
2022-08-18T19:11:01.784Z,27.09
2022-08-18T19:13:49.458Z,27.03
2022-08-18T19:16:28.594Z,26.96
2022-08-18T19:19:36.834Z,26.91
2022-08-18T19:22:03.889Z,26.84
2022-08-18T19:24:40.964Z,26.77
2022-08-18T19:27:23.244Z,26.70
2022-08-18T19:29:59.539Z,26.64
2022-08-18T19:32:36.990Z,26.59
2022-08-18T19:35:11.913Z,26.54
2022-08-18T19:37:48.641Z,26.49
2022-08-18T19:41:00.694Z,26.44
2022-08-18T19:43:45.593Z,26.39
2022-08-18T19:46:38.180Z,26.34
2022-08-18T19:49:31.624Z,26.29
2022-08-18T19:52:45.812Z,26.23
2022-08-18T19:56:11.923Z,26.15
2022-08-18T19:59:15.472Z,26.08
2022-08-18T20:02:05.198Z,26.01
2022-08-18T20:04:57.443Z,25.95
2022-08-18T20:07:27.991Z,25.88
2022-08-18T20:10:25.957Z,25.83
2022-08-18T20:13:00.580Z,25.78
2022-08-18T20:15:29.127Z,25.75
2022-08-18T20:18:06.248Z,25.71
2022-08-18T20:20:40.034Z,25.68
2022-08-18T20:23:32.218Z,25.64
2022-08-18T20:26:00.810Z,25.60
2022-08-18T20:28:39.982Z,25.57
2022-08-18T20:31:17.451Z,25.54
2022-08-18T20:34:04.268Z,25.52
2022-08-18T20:36:36.908Z,25.50
2022-08-18T20:39:39.840Z,25.49
2022-08-18T20:42:37.129Z,25.46
2022-08-18T20:45:27.988Z,25.43
2022-08-18T20:48:01.264Z,25.40
2022-08-18T20:50:49.541Z,25.36
2022-08-18T20:53:59.094Z,25.33
2022-08-18T20:56:44.457Z,25.28
2022-08-18T20:59:28.979Z,25.23
2022-08-18T21:01:58.546Z,25.17
2022-08-18T21:05:00.526Z,25.13
2022-08-18T21:07:36.374Z,25.07
2022-08-18T21:10:17.472Z,25.05
2022-08-18T21:12:58.590Z,25.01
2022-08-18T21:15:33.378Z,24.98
2022-08-18T21:18:09.048Z,24.96
2022-08-18T21:20:37.531Z,24.94
2022-08-18T21:23:10.856Z,24.92
2022-08-18T21:26:02.123Z,24.90
2022-08-18T21:28:38.139Z,24.88
2022-08-18T21:31:42.964Z,24.86
2022-08-18T21:34:45.016Z,24.85
2022-08-18T21:37:15.817Z,24.82
2022-08-18T21:39:55.161Z,24.81
2022-08-18T21:42:45.029Z,24.81
2022-08-18T21:45:19.367Z,24.81
2022-08-18T21:47:51.398Z,24.82
2022-08-18T21:50:23.295Z,24.82
2022-08-18T21:52:53.931Z,24.82
2022-08-18T21:55:33.006Z,24.82
2022-08-18T21:58:03.208Z,24.82
2022-08-18T22:00:34.035Z,24.81
2022-08-18T22:03:21.393Z,24.82
2022-08-18T22:06:20.433Z,24.82
2022-08-18T22:08:51.584Z,24.82
2022-08-18T22:12:01.176Z,24.82
2022-08-18T22:14:54.358Z,24.83
2022-08-18T22:17:48.267Z,24.82
2022-08-18T22:20:40.940Z,24.82
2022-08-18T22:23:40.998Z,24.82
2022-08-18T22:26:27.772Z,24.82
2022-08-18T22:29:27.954Z,24.80
2022-08-18T22:32:01.461Z,24.78
2022-08-18T22:34:34.323Z,24.77
2022-08-18T22:37:14.627Z,24.78
2022-08-18T22:40:04.838Z,24.79
2022-08-18T22:42:34.241Z,24.79
2022-08-18T22:45:09.986Z,24.80
2022-08-18T22:47:43.238Z,24.81
2022-08-18T22:50:14.413Z,24.81
2022-08-18T22:52:48.523Z,24.82
2022-08-18T22:55:20.860Z,24.83
2022-08-18T22:57:56.172Z,24.83
2022-08-18T23:00:26.047Z,24.84
2022-08-18T23:02:55.658Z,24.84
2022-08-18T23:05:30.966Z,24.85
2022-08-18T23:08:00.455Z,24.85
2022-08-18T23:10:29.305Z,24.85
2022-08-18T23:13:03.630Z,24.87
2022-08-18T23:15:47.858Z,24.87
2022-08-18T23:18:19.683Z,24.87
2022-08-18T23:20:50.683Z,24.88
2022-08-18T23:23:21.544Z,24.88
2022-08-18T23:25:51.417Z,24.88
2022-08-18T23:28:20.409Z,24.89
2022-08-18T23:30:50.607Z,24.89
2022-08-18T23:33:21.704Z,24.88
2022-08-18T23:35:50.479Z,24.88
2022-08-18T23:38:19.428Z,24.87
2022-08-18T23:40:51.422Z,24.86
2022-08-18T23:43:23.796Z,24.85
2022-08-18T23:45:51.915Z,24.85
2022-08-18T23:48:23.723Z,24.83
2022-08-18T23:50:51.769Z,24.81
2022-08-18T23:53:20.069Z,24.79
2022-08-18T23:55:48.025Z,24.76
2022-08-18T23:58:16.210Z,24.74
